sensor_id;sensor_type;location;lat;lon;timestamp;temperature;humidity
59146;DHT22;44928;53.074;6.646;2023-03-03T00:00:46;2.80;99.90
59146;DHT22;44928;53.074;6.646;2023-03-03T00:03:15;2.80;99.90
59146;DHT22;44928;53.074;6.646;2023-03-03T00:05:42;2.80;99.90
59146;DHT22;44928;53.074;6.646;2023-03-03T00:08:08;2.80;99.90
59146;DHT22;44928;53.074;6.646;2023-03-03T00:10:35;2.80;99.90
59146;DHT22;44928;53.074;6.646;2023-03-03T00:13:01;2.80;99.90
59146;DHT22;44928;53.074;6.646;2023-03-03T00:15:28;2.70;99.90
59146;DHT22;44928;53.074;6.646;2023-03-03T00:17:54;2.80;99.90
59146;DHT22;44928;53.074;6.646;2023-03-03T00:20:31;2.70;99.90
59146;DHT22;44928;53.074;6.646;2023-03-03T00:23:35;2.70;99.90
59146;DHT22;44928;53.074;6.646;2023-03-03T00:28:50;2.70;99.90
59146;DHT22;44928;53.074;6.646;2023-03-03T00:33:51;2.70;99.90
59146;DHT22;44928;53.074;6.646;2023-03-03T00:36:38;2.70;99.90
59146;DHT22;44928;53.074;6.646;2023-03-03T00:39:28;2.70;99.90
59146;DHT22;44928;53.074;6.646;2023-03-03T00:41:56;2.80;99.90
59146;DHT22;44928;53.074;6.646;2023-03-03T00:47:38;2.80;99.90
59146;DHT22;44928;53.074;6.646;2023-03-03T00:52:38;2.80;99.90
59146;DHT22;44928;53.074;6.646;2023-03-03T00:55:05;2.80;99.90
59146;DHT22;44928;53.074;6.646;2023-03-03T00:57:31;2.80;99.90
59146;DHT22;44928;53.074;6.646;2023-03-03T00:59:57;2.90;99.90
59146;DHT22;44928;53.074;6.646;2023-03-03T01:02:23;2.90;99.90
59146;DHT22;44928;53.074;6.646;2023-03-03T01:04:50;2.90;99.90
59146;DHT22;44928;53.074;6.646;2023-03-03T01:07:17;2.90;99.90
59146;DHT22;44928;53.074;6.646;2023-03-03T01:09:43;2.90;99.90
59146;DHT22;44928;53.074;6.646;2023-03-03T01:12:10;2.90;99.90
59146;DHT22;44928;53.074;6.646;2023-03-03T01:14:37;2.90;99.90
59146;DHT22;44928;53.074;6.646;2023-03-03T01:17:03;2.90;99.90
59146;DHT22;44928;53.074;6.646;2023-03-03T01:19:30;2.90;99.90
59146;DHT22;44928;53.074;6.646;2023-03-03T01:21:55;2.90;99.90
59146;DHT22;44928;53.074;6.646;2023-03-03T01:24:21;2.90;99.90
59146;DHT22;44928;53.074;6.646;2023-03-03T01:26:47;2.90;99.90
59146;DHT22;44928;53.074;6.646;2023-03-03T01:29:13;2.90;99.90
59146;DHT22;44928;53.074;6.646;2023-03-03T01:31:38;2.90;99.90
59146;DHT22;44928;53.074;6.646;2023-03-03T01:34:05;2.90;99.90
59146;DHT22;44928;53.074;6.646;2023-03-03T01:36:32;2.90;99.90
59146;DHT22;44928;53.074;6.646;2023-03-03T01:38:59;2.90;99.90
59146;DHT22;44928;53.074;6.646;2023-03-03T01:41:29;2.90;99.90
59146;DHT22;44928;53.074;6.646;2023-03-03T01:43:57;2.90;99.90
59146;DHT22;44928;53.074;6.646;2023-03-03T01:46:52;2.90;99.90
59146;DHT22;44928;53.074;6.646;2023-03-03T01:49:27;2.90;99.90
59146;DHT22;44928;53.074;6.646;2023-03-03T01:51:57;2.90;99.90
59146;DHT22;44928;53.074;6.646;2023-03-03T01:54:35;2.90;99.90
59146;DHT22;44928;53.074;6.646;2023-03-03T01:57:05;2.90;99.90
59146;DHT22;44928;53.074;6.646;2023-03-03T01:59:35;2.90;99.90
59146;DHT22;44928;53.074;6.646;2023-03-03T02:02:03;2.90;99.90
59146;DHT22;44928;53.074;6.646;2023-03-03T02:04:29;2.90;99.90
59146;DHT22;44928;53.074;6.646;2023-03-03T02:07:01;2.80;99.90
59146;DHT22;44928;53.074;6.646;2023-03-03T02:10:00;2.80;99.90
59146;DHT22;44928;53.074;6.646;2023-03-03T02:12:38;2.80;99.90
59146;DHT22;44928;53.074;6.646;2023-03-03T02:15:19;2.70;99.90
59146;DHT22;44928;53.074;6.646;2023-03-03T02:17:46;2.80;99.90
59146;DHT22;44928;53.074;6.646;2023-03-03T02:20:22;2.80;99.90
59146;DHT22;44928;53.074;6.646;2023-03-03T02:25:36;2.80;99.90
59146;DHT22;44928;53.074;6.646;2023-03-03T02:28:07;2.80;99.90
59146;DHT22;44928;53.074;6.646;2023-03-03T02:30:37;2.80;99.90
59146;DHT22;44928;53.074;6.646;2023-03-03T02:33:03;2.80;99.90
59146;DHT22;44928;53.074;6.646;2023-03-03T02:35:37;2.80;99.90
59146;DHT22;44928;53.074;6.646;2023-03-03T02:41:01;2.80;99.90
59146;DHT22;44928;53.074;6.646;2023-03-03T02:43:42;2.80;99.90
59146;DHT22;44928;53.074;6.646;2023-03-03T02:46:11;2.80;99.90
59146;DHT22;44928;53.074;6.646;2023-03-03T02:48:37;2.80;99.90
59146;DHT22;44928;53.074;6.646;2023-03-03T02:51:02;2.80;99.90
59146;DHT22;44928;53.074;6.646;2023-03-03T02:53:28;2.80;99.90
59146;DHT22;44928;53.074;6.646;2023-03-03T02:55:54;2.80;99.90
59146;DHT22;44928;53.074;6.646;2023-03-03T02:58:20;2.80;99.90
59146;DHT22;44928;53.074;6.646;2023-03-03T03:00:46;2.80;99.90
59146;DHT22;44928;53.074;6.646;2023-03-03T03:03:14;2.80;99.90
59146;DHT22;44928;53.074;6.646;2023-03-03T03:05:40;2.80;99.90
59146;DHT22;44928;53.074;6.646;2023-03-03T03:08:06;2.70;99.90
59146;DHT22;44928;53.074;6.646;2023-03-03T03:10:32;2.70;99.90
59146;DHT22;44928;53.074;6.646;2023-03-03T03:12:57;2.60;99.90
59146;DHT22;44928;53.074;6.646;2023-03-03T03:15:23;2.60;99.90
59146;DHT22;44928;53.074;6.646;2023-03-03T03:17:49;2.60;99.90
59146;DHT22;44928;53.074;6.646;2023-03-03T03:20:16;2.60;99.90
59146;DHT22;44928;53.074;6.646;2023-03-03T03:22:42;2.60;99.90
59146;DHT22;44928;53.074;6.646;2023-03-03T03:25:08;2.60;99.90
59146;DHT22;44928;53.074;6.646;2023-03-03T03:27:34;2.50;99.90
59146;DHT22;44928;53.074;6.646;2023-03-03T03:30:00;2.50;99.90
59146;DHT22;44928;53.074;6.646;2023-03-03T03:32:26;2.50;99.90
59146;DHT22;44928;53.074;6.646;2023-03-03T03:34:52;2.50;99.90
59146;DHT22;44928;53.074;6.646;2023-03-03T03:37:17;2.50;99.90
59146;DHT22;44928;53.074;6.646;2023-03-03T03:39:44;2.40;99.90
59146;DHT22;44928;53.074;6.646;2023-03-03T03:42:09;2.40;99.90
59146;DHT22;44928;53.074;6.646;2023-03-03T03:44:36;2.40;99.90
59146;DHT22;44928;53.074;6.646;2023-03-03T03:47:01;2.40;99.90
59146;DHT22;44928;53.074;6.646;2023-03-03T03:49:27;2.40;99.90
59146;DHT22;44928;53.074;6.646;2023-03-03T03:51:53;2.40;99.90
59146;DHT22;44928;53.074;6.646;2023-03-03T03:54:19;2.40;99.90
59146;DHT22;44928;53.074;6.646;2023-03-03T03:56:45;2.50;99.90
59146;DHT22;44928;53.074;6.646;2023-03-03T03:59:10;2.40;99.90
59146;DHT22;44928;53.074;6.646;2023-03-03T04:01:37;2.40;99.90
59146;DHT22;44928;53.074;6.646;2023-03-03T04:04:02;2.40;99.90
59146;DHT22;44928;53.074;6.646;2023-03-03T04:06:30;2.50;99.90
59146;DHT22;44928;53.074;6.646;2023-03-03T04:08:56;2.50;99.90
59146;DHT22;44928;53.074;6.646;2023-03-03T04:11:21;2.50;99.90
59146;DHT22;44928;53.074;6.646;2023-03-03T04:13:47;2.50;99.90
59146;DHT22;44928;53.074;6.646;2023-03-03T04:16:13;2.50;99.90
59146;DHT22;44928;53.074;6.646;2023-03-03T04:18:41;2.40;99.90
59146;DHT22;44928;53.074;6.646;2023-03-03T04:21:11;2.50;99.90
59146;DHT22;44928;53.074;6.646;2023-03-03T04:23:37;2.40;99.90
59146;DHT22;44928;53.074;6.646;2023-03-03T04:26:03;2.30;99.90
59146;DHT22;44928;53.074;6.646;2023-03-03T04:28:28;2.30;99.90
59146;DHT22;44928;53.074;6.646;2023-03-03T04:30:54;2.20;99.90
59146;DHT22;44928;53.074;6.646;2023-03-03T04:33:20;2.20;99.90
59146;DHT22;44928;53.074;6.646;2023-03-03T04:35:46;2.10;99.90
59146;DHT22;44928;53.074;6.646;2023-03-03T04:38:11;2.00;99.90
59146;DHT22;44928;53.074;6.646;2023-03-03T04:40:40;2.00;99.90
59146;DHT22;44928;53.074;6.646;2023-03-03T04:43:06;1.90;99.90
59146;DHT22;44928;53.074;6.646;2023-03-03T04:45:32;1.90;99.90
59146;DHT22;44928;53.074;6.646;2023-03-03T04:47:58;1.80;99.90
59146;DHT22;44928;53.074;6.646;2023-03-03T04:50:24;1.80;99.90
59146;DHT22;44928;53.074;6.646;2023-03-03T04:52:49;1.80;99.90
59146;DHT22;44928;53.074;6.646;2023-03-03T04:55:15;1.70;99.90
59146;DHT22;44928;53.074;6.646;2023-03-03T04:57:41;1.60;99.90
59146;DHT22;44928;53.074;6.646;2023-03-03T05:00:10;1.60;99.90
59146;DHT22;44928;53.074;6.646;2023-03-03T05:02:38;1.60;99.90
59146;DHT22;44928;53.074;6.646;2023-03-03T05:05:06;1.50;99.90
59146;DHT22;44928;53.074;6.646;2023-03-03T05:07:32;1.50;99.90
59146;DHT22;44928;53.074;6.646;2023-03-03T05:09:57;1.50;99.90
59146;DHT22;44928;53.074;6.646;2023-03-03T05:12:23;1.50;99.90
59146;DHT22;44928;53.074;6.646;2023-03-03T05:14:49;1.50;99.90
59146;DHT22;44928;53.074;6.646;2023-03-03T05:17:15;1.40;99.90
59146;DHT22;44928;53.074;6.646;2023-03-03T05:19:41;1.40;99.90
59146;DHT22;44928;53.074;6.646;2023-03-03T05:22:06;1.30;99.90
59146;DHT22;44928;53.074;6.646;2023-03-03T05:24:32;1.30;99.90
59146;DHT22;44928;53.074;6.646;2023-03-03T05:26:58;1.20;99.90
59146;DHT22;44928;53.074;6.646;2023-03-03T05:29:24;1.20;99.90
59146;DHT22;44928;53.074;6.646;2023-03-03T05:31:50;1.10;99.90
59146;DHT22;44928;53.074;6.646;2023-03-03T05:34:16;1.10;99.90
59146;DHT22;44928;53.074;6.646;2023-03-03T05:36:42;0.90;99.90
59146;DHT22;44928;53.074;6.646;2023-03-03T05:39:08;0.80;99.90
59146;DHT22;44928;53.074;6.646;2023-03-03T05:41:33;0.80;99.90
59146;DHT22;44928;53.074;6.646;2023-03-03T05:44:02;0.70;99.90
59146;DHT22;44928;53.074;6.646;2023-03-03T05:46:28;0.70;99.90
59146;DHT22;44928;53.074;6.646;2023-03-03T05:48:53;0.60;99.90
59146;DHT22;44928;53.074;6.646;2023-03-03T05:51:19;0.60;99.90
59146;DHT22;44928;53.074;6.646;2023-03-03T05:53:45;0.60;99.90
59146;DHT22;44928;53.074;6.646;2023-03-03T05:56:10;0.60;99.90
59146;DHT22;44928;53.074;6.646;2023-03-03T05:58:36;0.50;99.90
59146;DHT22;44928;53.074;6.646;2023-03-03T06:01:02;0.50;99.90
59146;DHT22;44928;53.074;6.646;2023-03-03T06:03:28;0.50;99.90
59146;DHT22;44928;53.074;6.646;2023-03-03T06:05:54;0.40;99.90
59146;DHT22;44928;53.074;6.646;2023-03-03T06:08:20;0.40;99.90
59146;DHT22;44928;53.074;6.646;2023-03-03T06:10:45;0.40;99.90
59146;DHT22;44928;53.074;6.646;2023-03-03T06:13:11;0.30;99.90
59146;DHT22;44928;53.074;6.646;2023-03-03T06:15:37;0.30;99.90
59146;DHT22;44928;53.074;6.646;2023-03-03T06:18:03;0.30;99.90
59146;DHT22;44928;53.074;6.646;2023-03-03T06:20:29;0.20;99.90
59146;DHT22;44928;53.074;6.646;2023-03-03T06:22:54;0.20;99.90
59146;DHT22;44928;53.074;6.646;2023-03-03T06:25:20;0.10;99.90
59146;DHT22;44928;53.074;6.646;2023-03-03T06:27:46;0.10;99.90
59146;DHT22;44928;53.074;6.646;2023-03-03T06:30:12;0.10;99.90
59146;DHT22;44928;53.074;6.646;2023-03-03T06:32:38;0.00;99.90
59146;DHT22;44928;53.074;6.646;2023-03-03T06:35:04;0.00;99.90
59146;DHT22;44928;53.074;6.646;2023-03-03T06:37:30;-0.10;99.90
59146;DHT22;44928;53.074;6.646;2023-03-03T06:39:56;-0.10;99.90
59146;DHT22;44928;53.074;6.646;2023-03-03T06:42:22;-0.10;99.90
59146;DHT22;44928;53.074;6.646;2023-03-03T06:44:49;-0.20;99.90
59146;DHT22;44928;53.074;6.646;2023-03-03T06:47:15;-0.20;99.90
59146;DHT22;44928;53.074;6.646;2023-03-03T06:49:41;-0.20;99.90
59146;DHT22;44928;53.074;6.646;2023-03-03T06:52:16;-0.20;99.90
59146;DHT22;44928;53.074;6.646;2023-03-03T06:54:43;-0.20;99.90
59146;DHT22;44928;53.074;6.646;2023-03-03T06:57:26;-0.20;99.90
59146;DHT22;44928;53.074;6.646;2023-03-03T06:59:54;-0.10;99.90
59146;DHT22;44928;53.074;6.646;2023-03-03T07:02:21;-0.20;99.90
59146;DHT22;44928;53.074;6.646;2023-03-03T07:04:47;-0.20;99.90
59146;DHT22;44928;53.074;6.646;2023-03-03T07:07:22;-0.20;99.90
59146;DHT22;44928;53.074;6.646;2023-03-03T07:09:52;-0.20;99.90
59146;DHT22;44928;53.074;6.646;2023-03-03T07:12:28;-0.20;99.90
59146;DHT22;44928;53.074;6.646;2023-03-03T07:15:15;-0.10;99.90
59146;DHT22;44928;53.074;6.646;2023-03-03T07:17:44;0.00;99.90
59146;DHT22;44928;53.074;6.646;2023-03-03T07:20:32;0.00;99.90
59146;DHT22;44928;53.074;6.646;2023-03-03T07:22:59;0.00;99.90
59146;DHT22;44928;53.074;6.646;2023-03-03T07:25:28;0.00;99.90
59146;DHT22;44928;53.074;6.646;2023-03-03T07:27:59;0.00;99.90
59146;DHT22;44928;53.074;6.646;2023-03-03T07:30:28;0.00;99.90
59146;DHT22;44928;53.074;6.646;2023-03-03T07:32:55;0.00;99.90
59146;DHT22;44928;53.074;6.646;2023-03-03T07:35:38;0.10;99.90
59146;DHT22;44928;53.074;6.646;2023-03-03T07:40:51;0.10;99.90
59146;DHT22;44928;53.074;6.646;2023-03-03T07:48:40;0.20;99.90
59146;DHT22;44928;53.074;6.646;2023-03-03T07:53:47;0.30;99.90
59146;DHT22;44928;53.074;6.646;2023-03-03T07:56:33;0.30;99.90
59146;DHT22;44928;53.074;6.646;2023-03-03T07:58:59;0.30;99.90
59146;DHT22;44928;53.074;6.646;2023-03-03T08:01:45;0.30;99.90
59146;DHT22;44928;53.074;6.646;2023-03-03T08:04:25;0.30;99.90
59146;DHT22;44928;53.074;6.646;2023-03-03T08:06:56;0.40;99.90
59146;DHT22;44928;53.074;6.646;2023-03-03T08:09:43;0.40;99.90
59146;DHT22;44928;53.074;6.646;2023-03-03T08:14:46;0.60;99.90
59146;DHT22;44928;53.074;6.646;2023-03-03T08:17:28;0.70;99.90
59146;DHT22;44928;53.074;6.646;2023-03-03T08:19:59;0.80;99.90
59146;DHT22;44928;53.074;6.646;2023-03-03T08:22:34;0.80;99.90
59146;DHT22;44928;53.074;6.646;2023-03-03T08:25:03;0.90;99.90
59146;DHT22;44928;53.074;6.646;2023-03-03T08:27:29;1.00;99.90
59146;DHT22;44928;53.074;6.646;2023-03-03T08:29:54;1.10;99.90
59146;DHT22;44928;53.074;6.646;2023-03-03T08:32:20;1.10;99.90
59146;DHT22;44928;53.074;6.646;2023-03-03T08:34:46;1.20;99.90
59146;DHT22;44928;53.074;6.646;2023-03-03T08:37:12;1.20;99.90
59146;DHT22;44928;53.074;6.646;2023-03-03T08:39:38;1.30;99.90
59146;DHT22;44928;53.074;6.646;2023-03-03T08:42:03;1.30;99.90
59146;DHT22;44928;53.074;6.646;2023-03-03T08:44:29;1.40;99.90
59146;DHT22;44928;53.074;6.646;2023-03-03T08:46:55;1.40;99.90
59146;DHT22;44928;53.074;6.646;2023-03-03T08:49:21;1.50;99.90
59146;DHT22;44928;53.074;6.646;2023-03-03T08:51:46;1.50;99.90
59146;DHT22;44928;53.074;6.646;2023-03-03T08:54:12;1.60;99.90
59146;DHT22;44928;53.074;6.646;2023-03-03T08:56:38;1.60;99.90
59146;DHT22;44928;53.074;6.646;2023-03-03T08:59:04;1.70;99.90
59146;DHT22;44928;53.074;6.646;2023-03-03T09:01:33;1.70;99.90
59146;DHT22;44928;53.074;6.646;2023-03-03T09:03:59;1.80;99.90
59146;DHT22;44928;53.074;6.646;2023-03-03T09:06:25;1.80;99.90
59146;DHT22;44928;53.074;6.646;2023-03-03T09:08:52;1.90;99.90
59146;DHT22;44928;53.074;6.646;2023-03-03T09:11:24;1.90;99.90
59146;DHT22;44928;53.074;6.646;2023-03-03T09:14:15;2.00;99.90
59146;DHT22;44928;53.074;6.646;2023-03-03T09:16:57;2.00;99.90
59146;DHT22;44928;53.074;6.646;2023-03-03T09:19:32;2.10;99.90
59146;DHT22;44928;53.074;6.646;2023-03-03T09:22:08;2.20;99.90
59146;DHT22;44928;53.074;6.646;2023-03-03T09:24:36;2.20;99.90
59146;DHT22;44928;53.074;6.646;2023-03-03T09:27:11;2.30;99.90
59146;DHT22;44928;53.074;6.646;2023-03-03T09:29:39;2.40;99.90
59146;DHT22;44928;53.074;6.646;2023-03-03T09:32:34;2.50;99.90
59146;DHT22;44928;53.074;6.646;2023-03-03T09:37:55;2.50;99.90
59146;DHT22;44928;53.074;6.646;2023-03-03T10:03:28;3.10;99.90
59146;DHT22;44928;53.074;6.646;2023-03-03T10:12:32;3.40;99.90
59146;DHT22;44928;53.074;6.646;2023-03-03T10:15:06;3.50;99.90
59146;DHT22;44928;53.074;6.646;2023-03-03T10:17:49;3.50;99.90
59146;DHT22;44928;53.074;6.646;2023-03-03T10:20:29;3.60;99.90
59146;DHT22;44928;53.074;6.646;2023-03-03T10:26:07;3.80;99.90
59146;DHT22;44928;53.074;6.646;2023-03-03T10:50:54;4.90;99.90
59146;DHT22;44928;53.074;6.646;2023-03-03T11:02:02;5.30;99.90
59146;DHT22;44928;53.074;6.646;2023-03-03T11:07:24;5.50;99.90
59146;DHT22;44928;53.074;6.646;2023-03-03T11:17:46;5.90;99.90
59146;DHT22;44928;53.074;6.646;2023-03-03T11:29:19;6.20;99.90
59146;DHT22;44928;53.074;6.646;2023-03-03T11:31:55;6.30;99.90
59146;DHT22;44928;53.074;6.646;2023-03-03T11:37:07;6.60;99.90
59146;DHT22;44928;53.074;6.646;2023-03-03T11:39:34;6.60;99.90
59146;DHT22;44928;53.074;6.646;2023-03-03T11:44:39;6.70;99.90
59146;DHT22;44928;53.074;6.646;2023-03-03T11:50:15;6.90;99.90
59146;DHT22;44928;53.074;6.646;2023-03-03T11:52:53;6.90;99.90
59146;DHT22;44928;53.074;6.646;2023-03-03T11:55:34;7.00;99.90
59146;DHT22;44928;53.074;6.646;2023-03-03T11:58:19;7.00;99.90
59146;DHT22;44928;53.074;6.646;2023-03-03T12:00:51;7.00;99.90
59146;DHT22;44928;53.074;6.646;2023-03-03T12:04:10;7.00;99.90
59146;DHT22;44928;53.074;6.646;2023-03-03T12:17:02;7.20;99.90
59146;DHT22;44928;53.074;6.646;2023-03-03T12:20:10;7.20;99.90
59146;DHT22;44928;53.074;6.646;2023-03-03T12:25:56;7.30;99.90
59146;DHT22;44928;53.074;6.646;2023-03-03T12:28:27;7.30;99.90
59146;DHT22;44928;53.074;6.646;2023-03-03T12:31:54;7.40;99.90
59146;DHT22;44928;53.074;6.646;2023-03-03T12:34:10;7.40;99.90
59146;DHT22;44928;53.074;6.646;2023-03-03T12:41:50;7.80;99.90
59146;DHT22;44928;53.074;6.646;2023-03-03T12:44:37;8.00;99.90
59146;DHT22;44928;53.074;6.646;2023-03-03T12:47:24;8.10;99.90
59146;DHT22;44928;53.074;6.646;2023-03-03T12:57:59;8.20;99.90
59146;DHT22;44928;53.074;6.646;2023-03-03T13:03:34;8.30;99.90
59146;DHT22;44928;53.074;6.646;2023-03-03T13:08:50;8.20;99.90
59146;DHT22;44928;53.074;6.646;2023-03-03T13:11:31;8.20;99.90
59146;DHT22;44928;53.074;6.646;2023-03-03T13:17:06;8.10;99.90
59146;DHT22;44928;53.074;6.646;2023-03-03T13:19:39;8.10;99.90
59146;DHT22;44928;53.074;6.646;2023-03-03T13:22:13;8.10;99.90
59146;DHT22;44928;53.074;6.646;2023-03-03T13:27:42;8.10;99.90
59146;DHT22;44928;53.074;6.646;2023-03-03T13:30:21;8.00;99.90
59146;DHT22;44928;53.074;6.646;2023-03-03T13:33:08;8.00;99.90
59146;DHT22;44928;53.074;6.646;2023-03-03T13:38:13;8.20;99.90
59146;DHT22;44928;53.074;6.646;2023-03-03T13:51:18;8.40;99.90
59146;DHT22;44928;53.074;6.646;2023-03-03T14:00:04;8.20;99.90
59146;DHT22;44928;53.074;6.646;2023-03-03T14:03:06;8.20;99.90
59146;DHT22;44928;53.074;6.646;2023-03-03T14:05:49;8.20;99.90
59146;DHT22;44928;53.074;6.646;2023-03-03T14:10:43;8.20;99.90
59146;DHT22;44928;53.074;6.646;2023-03-03T14:13:20;8.30;99.90
59146;DHT22;44928;53.074;6.646;2023-03-03T14:16:04;8.30;99.90
59146;DHT22;44928;53.074;6.646;2023-03-03T14:18:40;8.30;99.90
59146;DHT22;44928;53.074;6.646;2023-03-03T14:21:13;8.30;99.90
59146;DHT22;44928;53.074;6.646;2023-03-03T14:26:22;8.30;99.90
59146;DHT22;44928;53.074;6.646;2023-03-03T14:28:49;8.30;99.90
59146;DHT22;44928;53.074;6.646;2023-03-03T14:31:21;8.30;99.90
59146;DHT22;44928;53.074;6.646;2023-03-03T14:34:02;8.40;99.90
59146;DHT22;44928;53.074;6.646;2023-03-03T14:36:38;8.30;99.90
59146;DHT22;44928;53.074;6.646;2023-03-03T14:39:27;8.30;99.90
59146;DHT22;44928;53.074;6.646;2023-03-03T14:41:54;8.20;99.90
59146;DHT22;44928;53.074;6.646;2023-03-03T14:44:29;8.20;99.90
59146;DHT22;44928;53.074;6.646;2023-03-03T14:47:22;8.10;99.90
59146;DHT22;44928;53.074;6.646;2023-03-03T14:49:48;8.10;99.90
59146;DHT22;44928;53.074;6.646;2023-03-03T14:54:46;8.00;99.90
59146;DHT22;44928;53.074;6.646;2023-03-03T15:02:40;7.80;99.90
59146;DHT22;44928;53.074;6.646;2023-03-03T15:05:34;7.70;99.90
59146;DHT22;44928;53.074;6.646;2023-03-03T15:10:37;7.70;99.90
59146;DHT22;44928;53.074;6.646;2023-03-03T15:16:04;7.60;99.90
59146;DHT22;44928;53.074;6.646;2023-03-03T15:18:33;7.60;99.90
59146;DHT22;44928;53.074;6.646;2023-03-03T15:21:18;7.50;99.90
59146;DHT22;44928;53.074;6.646;2023-03-03T15:29:35;7.50;99.90
59146;DHT22;44928;53.074;6.646;2023-03-03T15:32:22;7.40;99.90
59146;DHT22;44928;53.074;6.646;2023-03-03T15:35:17;7.30;99.90
59146;DHT22;44928;53.074;6.646;2023-03-03T15:37:46;7.30;99.90
59146;DHT22;44928;53.074;6.646;2023-03-03T15:45:28;7.20;99.90
59146;DHT22;44928;53.074;6.646;2023-03-03T15:57:00;7.20;99.90
59146;DHT22;44928;53.074;6.646;2023-03-03T15:59:35;7.10;99.90
59146;DHT22;44928;53.074;6.646;2023-03-03T16:02:13;7.10;99.90
59146;DHT22;44928;53.074;6.646;2023-03-03T16:04:58;7.00;99.90
59146;DHT22;44928;53.074;6.646;2023-03-03T16:13:30;6.90;99.90
59146;DHT22;44928;53.074;6.646;2023-03-03T16:31:47;6.90;99.90
59146;DHT22;44928;53.074;6.646;2023-03-03T16:42:28;6.90;99.90
59146;DHT22;44928;53.074;6.646;2023-03-03T16:47:51;6.80;99.90
59146;DHT22;44928;53.074;6.646;2023-03-03T17:04:45;6.80;99.90
59146;DHT22;44928;53.074;6.646;2023-03-03T17:07:43;6.80;99.90
59146;DHT22;44928;53.074;6.646;2023-03-03T17:10:32;6.80;99.90
59146;DHT22;44928;53.074;6.646;2023-03-03T17:16:21;6.80;99.90
59146;DHT22;44928;53.074;6.646;2023-03-03T17:19:21;6.70;99.90
59146;DHT22;44928;53.074;6.646;2023-03-03T17:24:46;6.70;99.90
59146;DHT22;44928;53.074;6.646;2023-03-03T17:27:27;6.60;99.90
59146;DHT22;44928;53.074;6.646;2023-03-03T17:38:29;6.60;99.90
59146;DHT22;44928;53.074;6.646;2023-03-03T17:41:32;6.60;99.90
59146;DHT22;44928;53.074;6.646;2023-03-03T17:44:08;6.60;99.90
59146;DHT22;44928;53.074;6.646;2023-03-03T17:46:47;6.60;99.90
59146;DHT22;44928;53.074;6.646;2023-03-03T17:54:56;6.60;99.90
59146;DHT22;44928;53.074;6.646;2023-03-03T18:00:11;6.50;99.90
59146;DHT22;44928;53.074;6.646;2023-03-03T18:05:43;6.40;99.90
59146;DHT22;44928;53.074;6.646;2023-03-03T18:08:28;6.50;99.90
59146;DHT22;44928;53.074;6.646;2023-03-03T18:22:06;6.40;99.90
59146;DHT22;44928;53.074;6.646;2023-03-03T18:25:50;6.40;99.90
59146;DHT22;44928;53.074;6.646;2023-03-03T18:30:58;6.40;99.90
59146;DHT22;44928;53.074;6.646;2023-03-03T18:38:52;6.40;99.90
59146;DHT22;44928;53.074;6.646;2023-03-03T18:41:26;6.30;99.90
59146;DHT22;44928;53.074;6.646;2023-03-03T18:49:07;6.30;99.90
59146;DHT22;44928;53.074;6.646;2023-03-03T18:57:11;6.30;99.90
59146;DHT22;44928;53.074;6.646;2023-03-03T19:02:34;6.30;99.90
59146;DHT22;44928;53.074;6.646;2023-03-03T19:05:18;6.30;99.90
59146;DHT22;44928;53.074;6.646;2023-03-03T19:08:03;6.30;99.90
59146;DHT22;44928;53.074;6.646;2023-03-03T19:13:39;6.20;99.90
59146;DHT22;44928;53.074;6.646;2023-03-03T19:16:29;6.30;99.90
59146;DHT22;44928;53.074;6.646;2023-03-03T19:21:31;6.20;99.90
59146;DHT22;44928;53.074;6.646;2023-03-03T19:24:00;6.30;99.90
59146;DHT22;44928;53.074;6.646;2023-03-03T19:48:34;6.20;99.90
59146;DHT22;44928;53.074;6.646;2023-03-03T19:51:19;6.20;99.90
59146;DHT22;44928;53.074;6.646;2023-03-03T19:59:16;6.20;99.90
59146;DHT22;44928;53.074;6.646;2023-03-03T20:07:39;6.20;99.90
59146;DHT22;44928;53.074;6.646;2023-03-03T20:15:44;6.20;99.90
59146;DHT22;44928;53.074;6.646;2023-03-03T20:18:28;6.20;99.90
59146;DHT22;44928;53.074;6.646;2023-03-03T20:21:13;6.20;99.90
59146;DHT22;44928;53.074;6.646;2023-03-03T20:29:39;6.20;99.90
59146;DHT22;44928;53.074;6.646;2023-03-03T20:32:19;6.20;99.90
59146;DHT22;44928;53.074;6.646;2023-03-03T20:38:03;6.20;99.90
59146;DHT22;44928;53.074;6.646;2023-03-03T21:07:36;6.20;99.90
59146;DHT22;44928;53.074;6.646;2023-03-03T21:10:30;6.30;99.90
59146;DHT22;44928;53.074;6.646;2023-03-03T21:12:58;6.30;99.90
59146;DHT22;44928;53.074;6.646;2023-03-03T21:16:00;6.30;99.90
59146;DHT22;44928;53.074;6.646;2023-03-03T21:18:27;6.30;99.90
59146;DHT22;44928;53.074;6.646;2023-03-03T21:20:53;6.20;99.90
59146;DHT22;44928;53.074;6.646;2023-03-03T21:23:19;6.20;99.90
59146;DHT22;44928;53.074;6.646;2023-03-03T21:25:55;6.30;99.90
59146;DHT22;44928;53.074;6.646;2023-03-03T21:28:25;6.30;99.90
59146;DHT22;44928;53.074;6.646;2023-03-03T21:31:13;6.30;99.90
59146;DHT22;44928;53.074;6.646;2023-03-03T21:33:47;6.30;99.90
59146;DHT22;44928;53.074;6.646;2023-03-03T21:38:46;6.30;99.90
59146;DHT22;44928;53.074;6.646;2023-03-03T21:41:13;6.30;99.90
59146;DHT22;44928;53.074;6.646;2023-03-03T21:43:45;6.30;99.90
59146;DHT22;44928;53.074;6.646;2023-03-03T21:46:11;6.30;99.90
59146;DHT22;44928;53.074;6.646;2023-03-03T21:48:41;6.30;99.90
59146;DHT22;44928;53.074;6.646;2023-03-03T21:51:08;6.30;99.90
59146;DHT22;44928;53.074;6.646;2023-03-03T21:53:34;6.30;99.90
59146;DHT22;44928;53.074;6.646;2023-03-03T21:56:00;6.30;99.90
59146;DHT22;44928;53.074;6.646;2023-03-03T21:58:26;6.30;99.90
59146;DHT22;44928;53.074;6.646;2023-03-03T22:00:51;6.30;99.90
59146;DHT22;44928;53.074;6.646;2023-03-03T22:03:17;6.30;99.90
59146;DHT22;44928;53.074;6.646;2023-03-03T22:05:46;6.30;99.90
59146;DHT22;44928;53.074;6.646;2023-03-03T22:08:15;6.30;99.90
59146;DHT22;44928;53.074;6.646;2023-03-03T22:10:48;6.30;99.90
59146;DHT22;44928;53.074;6.646;2023-03-03T22:13:18;6.30;99.90
59146;DHT22;44928;53.074;6.646;2023-03-03T22:15:48;6.30;99.90
59146;DHT22;44928;53.074;6.646;2023-03-03T22:18:14;6.30;99.90
59146;DHT22;44928;53.074;6.646;2023-03-03T22:20:43;6.30;99.90
59146;DHT22;44928;53.074;6.646;2023-03-03T22:23:10;6.30;99.90
59146;DHT22;44928;53.074;6.646;2023-03-03T22:25:36;6.30;99.90
59146;DHT22;44928;53.074;6.646;2023-03-03T22:28:02;6.30;99.90
59146;DHT22;44928;53.074;6.646;2023-03-03T22:30:28;6.30;99.90
59146;DHT22;44928;53.074;6.646;2023-03-03T22:32:53;6.30;99.90
59146;DHT22;44928;53.074;6.646;2023-03-03T22:35:20;6.30;99.90
59146;DHT22;44928;53.074;6.646;2023-03-03T22:37:46;6.20;99.90
59146;DHT22;44928;53.074;6.646;2023-03-03T22:40:12;6.30;99.90
59146;DHT22;44928;53.074;6.646;2023-03-03T22:42:38;6.30;99.90
59146;DHT22;44928;53.074;6.646;2023-03-03T22:45:04;6.30;99.90
59146;DHT22;44928;53.074;6.646;2023-03-03T22:47:30;6.30;99.90
59146;DHT22;44928;53.074;6.646;2023-03-03T22:49:57;6.20;99.90
59146;DHT22;44928;53.074;6.646;2023-03-03T22:52:24;6.20;99.90
59146;DHT22;44928;53.074;6.646;2023-03-03T22:54:50;6.20;99.90
59146;DHT22;44928;53.074;6.646;2023-03-03T22:57:16;6.20;99.90
59146;DHT22;44928;53.074;6.646;2023-03-03T22:59:41;6.20;99.90
59146;DHT22;44928;53.074;6.646;2023-03-03T23:02:07;6.20;99.90